Ana Sayfa
METAR-TAF:

METAR-TAF

Havaalanları :

Kuveyt, Kuveyt

Enlem: 29-13N, Boylam: 047-59E, yükseklik: 55 m

Güncel hava durumu gözlemi

Rapor saat 19:00 UTC de 1 saat ve 1 dakika önce yapıldı.
Rüzgar kuzeydoğudan 6 kt
Sıcaklık 16°C
Nem 94%
Basınç 1009 hPa
Görüş mesafesi: 7000 m

METAR: OKBK 241900Z 04006KT 7000 NSC 16/15 Q1009 NOSIG

Saat: 23:01 (20:01 UTC)

Tahmin

Rapor saat 16:45 UTC de 3 saat ve 16 dakika önce yapıldı.
Ayın 24'si saat 18 UTC'den ayın 25'si saat 24 UTC'ye kadar geçerli Tahmin
Rüzgar güney/güneydoğudan 8 kt
Görüş mesafesi: 7000 m
4000 ft yükseklikte az bulutlu
8000 ft yükseklikte parçalı bulutlu
Geçici
ayın 24'si saat 18 UTC'den ayın 25'si saat 03 UTC'ye kadar
Rüzgar değişken yönden 3 kt
Görüş mesafesi: 1500 m
Pus
Geçici
ayın 24'si saat 21 UTC'den ayın 25'si saat 05 UTC'ye kadar
Görüş mesafesi: 0500 m
sis

TAF: OKBK 241645Z 2418/2524 16008KT 7000 FEW040 SCT080 TEMPO 2418/2503 VRB03KT 1500 BR TEMPO 2421/2505 0500 FG

4.000'den fazla havaalanı için hava durumu gözlemleri ve tahminleri (METAR ve TAF raporları).

Kullanılabilir istasyonlar harita üzerinde sarı ve kırmızı noktalarla gösterilir.

İstasyonun adını görmek için fareyi noktanın üzerinde gezdirin.

Sonrasında hava gözlem ve tahminlerini görmek için tıklayın.

Haritayı değiştirmek için: yaklaştırmak için siyah artı işaretli yeşil düğmeye ve uzaklaştırmak için de eksi işaretli düğmeye hızla tıklayın; bitişik haritalar için yeşil okları kullanın.


METAR-TAF: